Aérodrome :
LOGIN :

S'inscrire | Disclaimer

   EN    FR    IT 

 










Légende :    VFR   VFR Marginal   IFR   IFR Intensif   IFR Très Intensif
Visi : 
Plafond : 
>= 8 km
>= 3000ft
5 à 8 km
1000 à 3000 ft
1500m à 5 km
500 à 1000 ft
800 à 1500m
200 à 500 ft
< 800m
< 200 ft
Symboles :   Orages  Brouillard  Fortes neiges  Fortes précipitations  Vent > 20 kt
SIGMETs :   Divers  Orages  Givrage  Turbulence  Onde Orograph.  Cendres Volcan.






- Altitude de l'aérodrome : 1682 ft
- Code IATA : VIT


LEVT - Vitoria Gasteiz

DERNIER METAR :
  • 210130Z 03008KT 330V060 9999 FEW025 01/M03 Q1031

METARs EXPIRÉS :
  • 210100Z 02007KT 350V050 9999 FEW025 02/M03 Q1031
  • 210030Z 02010KT 9999 FEW025 02/M03 Q1031
  • 210000Z 02009KT 350V050 9999 FEW025 02/M03 Q1032
  • 202330Z 02008KT 9999 SCT025 01/M03 Q1032
  • 202300Z 01009KT 9999 SCT025 02/M02 Q1032

TAF TAF LEVT
Valide du 21 à 00h jusqu'au 22 à 00h UTC


202300Z 2100/2124 02012KT 9999 SCT020 TX03/2114Z TNM00/2103Z
PROB30
TEMPO 2103/2112 4000 -SN BKN010
PROB30
TEMPO 2112/2120 4000 -RA BKN005 BKN010
PROB40
TEMPO 2120/2124 VRB05KT 1500 BCFG BKN003



MET'MAP, la Météo Aéronautique d'un coup d'oeil ! - Copyright ORBIFLY Décembre 2007 - Disclaimer

ORBIFLY MET'MAP TEAM :

Programmation & Développement : Alexandra Zaïnal
Sur une idée originale de : Baudouin d'Aumeries
Assistance à la programmation : Marc-Olivier Méhu
Soutien technique & logistique : Manuel Goepfert

Contact : metmap@orbifly.com




SOURCES & CREDITS :

   NOAA